sensor_id;sensor_type;location;lat;lon;timestamp;pressure;altitude;pressure_sealevel;temperature;humidity
45813;BME280;31519;45.408;10.962;2023-04-30T00:00:34;100642.06;;;20.01;68.82
45813;BME280;31519;45.408;10.962;2023-04-30T00:03:23;100647.41;;;19.97;68.89
45813;BME280;31519;45.408;10.962;2023-04-30T00:05:51;100638.91;;;19.99;68.87
45813;BME280;31519;45.408;10.962;2023-04-30T00:08:20;100635.91;;;19.77;70.10
45813;BME280;31519;45.408;10.962;2023-04-30T00:10:48;100641.22;;;19.97;70.03
45813;BME280;31519;45.408;10.962;2023-04-30T00:13:16;100632.28;;;19.92;69.76
45813;BME280;31519;45.408;10.962;2023-04-30T00:15:45;100642.50;;;20.03;69.52
45813;BME280;31519;45.408;10.962;2023-04-30T00:18:13;100639.53;;;20.11;68.93
45813;BME280;31519;45.408;10.962;2023-04-30T00:20:41;100641.53;;;19.91;69.90
45813;BME280;31519;45.408;10.962;2023-04-30T00:23:09;100644.59;;;19.90;69.48
45813;BME280;31519;45.408;10.962;2023-04-30T00:25:37;100648.38;;;19.85;69.93
45813;BME280;31519;45.408;10.962;2023-04-30T00:28:05;100638.34;;;19.86;70.06
45813;BME280;31519;45.408;10.962;2023-04-30T00:30:33;100638.16;;;19.98;69.96
45813;BME280;31519;45.408;10.962;2023-04-30T00:33:01;100646.81;;;19.84;70.24
45813;BME280;31519;45.408;10.962;2023-04-30T00:35:29;100641.41;;;19.84;70.03
45813;BME280;31519;45.408;10.962;2023-04-30T00:37:58;100642.63;;;19.87;69.88
45813;BME280;31519;45.408;10.962;2023-04-30T00:40:25;100642.88;;;19.78;69.90
45813;BME280;31519;45.408;10.962;2023-04-30T00:42:54;100639.94;;;19.64;69.65
45813;BME280;31519;45.408;10.962;2023-04-30T00:45:22;100632.03;;;19.52;69.95
45813;BME280;31519;45.408;10.962;2023-04-30T00:47:50;100620.22;;;19.64;69.25
45813;BME280;31519;45.408;10.962;2023-04-30T00:50:19;100628.09;;;19.72;68.26
45813;BME280;31519;45.408;10.962;2023-04-30T00:52:47;100617.47;;;19.83;68.51
45813;BME280;31519;45.408;10.962;2023-04-30T00:55:16;100631.03;;;19.64;68.94
45813;BME280;31519;45.408;10.962;2023-04-30T00:57:44;100616.16;;;19.51;69.20
45813;BME280;31519;45.408;10.962;2023-04-30T01:00:13;100613.88;;;19.53;68.52
45813;BME280;31519;45.408;10.962;2023-04-30T01:02:42;100615.44;;;19.34;69.48
45813;BME280;31519;45.408;10.962;2023-04-30T01:05:11;100606.13;;;19.51;69.38
45813;BME280;31519;45.408;10.962;2023-04-30T01:07:39;100605.13;;;19.40;69.42
45813;BME280;31519;45.408;10.962;2023-04-30T01:10:13;100602.03;;;19.83;67.88
45813;BME280;31519;45.408;10.962;2023-04-30T01:12:49;100604.50;;;19.69;67.79
45813;BME280;31519;45.408;10.962;2023-04-30T01:16:05;100595.75;;;19.53;68.78
45813;BME280;31519;45.408;10.962;2023-04-30T01:18:39;100601.59;;;19.36;69.14
45813;BME280;31519;45.408;10.962;2023-04-30T01:21:08;100606.69;;;19.60;68.82
45813;BME280;31519;45.408;10.962;2023-04-30T01:29:56;100616.97;;;19.32;69.42
45813;BME280;31519;45.408;10.962;2023-04-30T01:32:25;100612.09;;;19.18;70.14
45813;BME280;31519;45.408;10.962;2023-04-30T01:34:54;100614.91;;;19.25;70.02
45813;BME280;31519;45.408;10.962;2023-04-30T01:40:33;100615.69;;;19.26;69.67
45813;BME280;31519;45.408;10.962;2023-04-30T01:43:15;100610.25;;;19.22;69.58
45813;BME280;31519;45.408;10.962;2023-04-30T01:45:56;100607.88;;;19.21;70.15
45813;BME280;31519;45.408;10.962;2023-04-30T01:48:32;100610.75;;;19.09;70.90
45813;BME280;31519;45.408;10.962;2023-04-30T01:53:44;100621.78;;;19.00;71.24
45813;BME280;31519;45.408;10.962;2023-04-30T01:56:27;100609.97;;;19.08;70.88
45813;BME280;31519;45.408;10.962;2023-04-30T01:58:58;100606.06;;;19.25;69.03
45813;BME280;31519;45.408;10.962;2023-04-30T02:01:30;100617.50;;;19.41;68.28
45813;BME280;31519;45.408;10.962;2023-04-30T02:03:59;100604.63;;;19.12;70.15
45813;BME280;31519;45.408;10.962;2023-04-30T02:06:27;100602.50;;;18.59;71.69
45813;BME280;31519;45.408;10.962;2023-04-30T02:08:58;100613.59;;;18.39;73.63
45813;BME280;31519;45.408;10.962;2023-04-30T02:11:31;100609.88;;;17.93;75.73
45813;BME280;31519;45.408;10.962;2023-04-30T02:13:59;100606.22;;;18.01;75.53
45813;BME280;31519;45.408;10.962;2023-04-30T02:16:27;100606.50;;;17.96;76.01
45813;BME280;31519;45.408;10.962;2023-04-30T02:18:55;100606.81;;;18.10;75.38
45813;BME280;31519;45.408;10.962;2023-04-30T02:21:24;100604.91;;;18.30;74.54
45813;BME280;31519;45.408;10.962;2023-04-30T02:23:52;100604.13;;;18.64;73.03
45813;BME280;31519;45.408;10.962;2023-04-30T02:26:20;100610.00;;;18.50;72.71
45813;BME280;31519;45.408;10.962;2023-04-30T02:28:48;100603.63;;;18.78;72.12
45813;BME280;31519;45.408;10.962;2023-04-30T02:31:17;100605.09;;;18.75;72.50
45813;BME280;31519;45.408;10.962;2023-04-30T02:33:45;100603.97;;;18.76;71.90
45813;BME280;31519;45.408;10.962;2023-04-30T02:36:13;100600.50;;;18.76;72.00
45813;BME280;31519;45.408;10.962;2023-04-30T02:38:41;100611.06;;;18.46;73.19
45813;BME280;31519;45.408;10.962;2023-04-30T02:41:09;100607.91;;;18.44;73.13
45813;BME280;31519;45.408;10.962;2023-04-30T02:43:37;100600.06;;;18.20;74.65
45813;BME280;31519;45.408;10.962;2023-04-30T02:46:05;100602.69;;;17.81;76.01
45813;BME280;31519;45.408;10.962;2023-04-30T02:48:33;100592.59;;;17.78;76.53
45813;BME280;31519;45.408;10.962;2023-04-30T02:51:01;100601.44;;;17.94;76.31
45813;BME280;31519;45.408;10.962;2023-04-30T02:53:31;100589.59;;;17.99;75.70
45813;BME280;31519;45.408;10.962;2023-04-30T02:55:59;100596.91;;;17.98;75.56
45813;BME280;31519;45.408;10.962;2023-04-30T02:58:27;100595.13;;;18.22;75.17
45813;BME280;31519;45.408;10.962;2023-04-30T03:00:55;100586.69;;;18.23;74.58
45813;BME280;31519;45.408;10.962;2023-04-30T03:03:24;100586.97;;;18.18;74.93
45813;BME280;31519;45.408;10.962;2023-04-30T03:05:52;100592.75;;;18.20;74.58
45813;BME280;31519;45.408;10.962;2023-04-30T03:08:23;100582.69;;;18.17;74.95
45813;BME280;31519;45.408;10.962;2023-04-30T03:10:51;100582.22;;;18.50;73.66
45813;BME280;31519;45.408;10.962;2023-04-30T03:13:19;100581.78;;;18.29;74.39
45813;BME280;31519;45.408;10.962;2023-04-30T03:15:47;100584.47;;;18.29;73.75
45813;BME280;31519;45.408;10.962;2023-04-30T03:18:16;100575.91;;;18.23;74.04
45813;BME280;31519;45.408;10.962;2023-04-30T03:20:44;100580.28;;;18.12;74.29
45813;BME280;31519;45.408;10.962;2023-04-30T03:23:12;100582.84;;;17.73;76.29
45813;BME280;31519;45.408;10.962;2023-04-30T03:25:40;100582.50;;;17.75;76.56
45813;BME280;31519;45.408;10.962;2023-04-30T03:28:08;100589.13;;;17.62;76.74
45813;BME280;31519;45.408;10.962;2023-04-30T03:30:37;100585.72;;;17.81;75.69
45813;BME280;31519;45.408;10.962;2023-04-30T03:33:05;100585.28;;;17.79;75.96
45813;BME280;31519;45.408;10.962;2023-04-30T03:35:33;100591.38;;;17.76;76.07
45813;BME280;31519;45.408;10.962;2023-04-30T03:38:01;100581.19;;;17.85;75.47
45813;BME280;31519;45.408;10.962;2023-04-30T03:40:30;100589.09;;;17.93;75.19
45813;BME280;31519;45.408;10.962;2023-04-30T03:42:58;100597.56;;;18.11;74.44
45813;BME280;31519;45.408;10.962;2023-04-30T03:45:26;100590.91;;;18.05;74.42
45813;BME280;31519;45.408;10.962;2023-04-30T03:47:54;100594.50;;;18.28;73.33
45813;BME280;31519;45.408;10.962;2023-04-30T03:50:22;100590.50;;;18.22;73.95
45813;BME280;31519;45.408;10.962;2023-04-30T03:52:50;100588.94;;;18.21;73.56
45813;BME280;31519;45.408;10.962;2023-04-30T03:55:18;100590.63;;;18.10;73.82
45813;BME280;31519;45.408;10.962;2023-04-30T03:57:46;100589.22;;;18.16;73.55
45813;BME280;31519;45.408;10.962;2023-04-30T04:00:14;100590.78;;;18.17;73.83
45813;BME280;31519;45.408;10.962;2023-04-30T04:02:47;100593.63;;;18.24;72.78
45813;BME280;31519;45.408;10.962;2023-04-30T04:05:15;100593.28;;;18.26;72.56
45813;BME280;31519;45.408;10.962;2023-04-30T04:07:45;100594.16;;;18.49;71.53
45813;BME280;31519;45.408;10.962;2023-04-30T04:10:14;100594.13;;;18.30;71.94
45813;BME280;31519;45.408;10.962;2023-04-30T04:12:42;100589.59;;;18.34;71.62
45813;BME280;31519;45.408;10.962;2023-04-30T04:15:10;100589.13;;;18.12;72.83
45813;BME280;31519;45.408;10.962;2023-04-30T04:17:38;100587.56;;;18.11;72.42
45813;BME280;31519;45.408;10.962;2023-04-30T04:20:07;100589.34;;;18.04;72.77
45813;BME280;31519;45.408;10.962;2023-04-30T04:22:38;100596.63;;;18.03;73.00
45813;BME280;31519;45.408;10.962;2023-04-30T04:25:08;100600.81;;;18.36;72.23
45813;BME280;31519;45.408;10.962;2023-04-30T04:27:37;100604.91;;;18.30;72.49
45813;BME280;31519;45.408;10.962;2023-04-30T04:30:06;100604.78;;;18.23;72.50
45813;BME280;31519;45.408;10.962;2023-04-30T04:32:34;100612.88;;;18.23;72.73
45813;BME280;31519;45.408;10.962;2023-04-30T04:35:14;100609.78;;;18.05;73.88
45813;BME280;31519;45.408;10.962;2023-04-30T04:37:42;100622.06;;;18.22;74.03
45813;BME280;31519;45.408;10.962;2023-04-30T04:40:11;100623.41;;;18.12;74.74
45813;BME280;31519;45.408;10.962;2023-04-30T04:42:39;100625.22;;;18.24;75.05
45813;BME280;31519;45.408;10.962;2023-04-30T04:45:08;100627.50;;;18.41;74.58
45813;BME280;31519;45.408;10.962;2023-04-30T04:47:36;100631.94;;;18.33;75.06
45813;BME280;31519;45.408;10.962;2023-04-30T04:50:05;100630.44;;;18.16;75.26
45813;BME280;31519;45.408;10.962;2023-04-30T04:52:34;100631.72;;;18.23;75.14
45813;BME280;31519;45.408;10.962;2023-04-30T04:55:03;100631.16;;;18.13;75.79
45813;BME280;31519;45.408;10.962;2023-04-30T04:57:31;100638.78;;;18.27;75.31
45813;BME280;31519;45.408;10.962;2023-04-30T05:00:00;100640.13;;;18.37;75.13
45813;BME280;31519;45.408;10.962;2023-04-30T05:02:28;100645.38;;;18.65;74.90
45813;BME280;31519;45.408;10.962;2023-04-30T05:04:57;100637.97;;;18.62;74.17
45813;BME280;31519;45.408;10.962;2023-04-30T05:07:25;100642.19;;;18.59;74.31
45813;BME280;31519;45.408;10.962;2023-04-30T05:09:54;100644.22;;;18.66;72.05
45813;BME280;31519;45.408;10.962;2023-04-30T05:12:22;100649.28;;;18.67;71.30
45813;BME280;31519;45.408;10.962;2023-04-30T05:14:50;100656.53;;;18.63;70.69
45813;BME280;31519;45.408;10.962;2023-04-30T05:17:18;100652.25;;;18.62;70.58
45813;BME280;31519;45.408;10.962;2023-04-30T05:19:47;100653.31;;;18.57;71.00
45813;BME280;31519;45.408;10.962;2023-04-30T05:22:17;100653.09;;;18.66;69.74
45813;BME280;31519;45.408;10.962;2023-04-30T05:24:45;100653.75;;;18.59;70.19
45813;BME280;31519;45.408;10.962;2023-04-30T05:27:13;100655.16;;;18.53;70.47
45813;BME280;31519;45.408;10.962;2023-04-30T05:29:42;100655.97;;;18.73;69.95
45813;BME280;31519;45.408;10.962;2023-04-30T05:32:10;100657.66;;;18.62;70.27
45813;BME280;31519;45.408;10.962;2023-04-30T05:34:38;100653.19;;;18.70;69.62
45813;BME280;31519;45.408;10.962;2023-04-30T05:37:06;100659.88;;;18.95;69.02
45813;BME280;31519;45.408;10.962;2023-04-30T05:39:34;100663.06;;;18.81;69.25
45813;BME280;31519;45.408;10.962;2023-04-30T05:42:02;100665.19;;;18.91;69.67
45813;BME280;31519;45.408;10.962;2023-04-30T05:44:31;100658.56;;;19.08;69.18
45813;BME280;31519;45.408;10.962;2023-04-30T05:46:59;100657.28;;;19.02;69.07
45813;BME280;31519;45.408;10.962;2023-04-30T05:49:27;100662.56;;;19.14;68.56
45813;BME280;31519;45.408;10.962;2023-04-30T05:51:55;100662.56;;;18.95;69.81
45813;BME280;31519;45.408;10.962;2023-04-30T05:54:23;100657.72;;;19.04;69.26
45813;BME280;31519;45.408;10.962;2023-04-30T05:56:51;100660.06;;;19.25;68.25
45813;BME280;31519;45.408;10.962;2023-04-30T05:59:19;100663.53;;;19.25;68.76
45813;BME280;31519;45.408;10.962;2023-04-30T06:01:47;100668.28;;;19.32;68.75
45813;BME280;31519;45.408;10.962;2023-04-30T06:04:15;100667.84;;;19.49;67.76
45813;BME280;31519;45.408;10.962;2023-04-30T06:06:44;100668.13;;;19.44;67.77
45813;BME280;31519;45.408;10.962;2023-04-30T06:09:12;100674.28;;;19.02;69.08
45813;BME280;31519;45.408;10.962;2023-04-30T06:11:40;100670.66;;;19.14;69.01
45813;BME280;31519;45.408;10.962;2023-04-30T06:14:09;100668.75;;;19.15;68.99
45813;BME280;31519;45.408;10.962;2023-04-30T06:16:37;100675.00;;;19.61;67.45
45813;BME280;31519;45.408;10.962;2023-04-30T06:19:06;100676.56;;;19.62;67.21
45813;BME280;31519;45.408;10.962;2023-04-30T06:21:34;100679.63;;;19.60;66.73
45813;BME280;31519;45.408;10.962;2023-04-30T06:24:02;100680.53;;;19.68;67.57
45813;BME280;31519;45.408;10.962;2023-04-30T06:26:31;100687.78;;;19.86;66.54
45813;BME280;31519;45.408;10.962;2023-04-30T06:28:59;100680.88;;;19.89;66.34
45813;BME280;31519;45.408;10.962;2023-04-30T06:31:27;100681.09;;;20.03;65.91
45813;BME280;31519;45.408;10.962;2023-04-30T06:33:56;100680.22;;;20.22;65.26
45813;BME280;31519;45.408;10.962;2023-04-30T06:36:24;100679.41;;;20.18;65.09
45813;BME280;31519;45.408;10.962;2023-04-30T06:38:52;100681.44;;;20.51;64.02
45813;BME280;31519;45.408;10.962;2023-04-30T06:41:20;100680.16;;;20.41;64.03
45813;BME280;31519;45.408;10.962;2023-04-30T06:43:48;100685.44;;;20.60;63.60
45813;BME280;31519;45.408;10.962;2023-04-30T06:46:16;100686.19;;;20.57;63.72
45813;BME280;31519;45.408;10.962;2023-04-30T06:48:45;100684.97;;;20.55;64.20
45813;BME280;31519;45.408;10.962;2023-04-30T06:51:13;100679.91;;;20.53;64.51
45813;BME280;31519;45.408;10.962;2023-04-30T06:53:41;100690.72;;;20.50;65.10
45813;BME280;31519;45.408;10.962;2023-04-30T06:56:09;100690.22;;;20.44;65.15
45813;BME280;31519;45.408;10.962;2023-04-30T06:58:37;100689.16;;;20.78;64.25
45813;BME280;31519;45.408;10.962;2023-04-30T07:01:05;100687.03;;;20.95;63.75
45813;BME280;31519;45.408;10.962;2023-04-30T07:03:34;100699.34;;;20.89;63.81
45813;BME280;31519;45.408;10.962;2023-04-30T07:06:03;100691.81;;;21.08;63.14
45813;BME280;31519;45.408;10.962;2023-04-30T07:08:31;100702.44;;;21.17;63.09
45813;BME280;31519;45.408;10.962;2023-04-30T07:10:59;100704.03;;;21.21;62.89
45813;BME280;31519;45.408;10.962;2023-04-30T07:13:27;100706.81;;;21.29;62.72
45813;BME280;31519;45.408;10.962;2023-04-30T07:15:55;100704.44;;;21.27;62.48
45813;BME280;31519;45.408;10.962;2023-04-30T07:18:24;100704.41;;;21.23;62.65
45813;BME280;31519;45.408;10.962;2023-04-30T07:20:52;100711.44;;;21.28;61.89
45813;BME280;31519;45.408;10.962;2023-04-30T07:23:20;100700.28;;;21.33;61.97
45813;BME280;31519;45.408;10.962;2023-04-30T07:25:48;100699.59;;;21.43;61.87
45813;BME280;31519;45.408;10.962;2023-04-30T07:28:16;100697.50;;;21.66;60.92
45813;BME280;31519;45.408;10.962;2023-04-30T07:30:44;100694.81;;;21.66;61.29
45813;BME280;31519;45.408;10.962;2023-04-30T07:33:13;100698.13;;;21.49;61.03
45813;BME280;31519;45.408;10.962;2023-04-30T07:35:41;100702.31;;;21.84;60.13
45813;BME280;31519;45.408;10.962;2023-04-30T07:38:09;100701.06;;;21.74;59.60
45813;BME280;31519;45.408;10.962;2023-04-30T07:40:37;100692.94;;;22.22;58.18
45813;BME280;31519;45.408;10.962;2023-04-30T07:43:05;100697.19;;;22.19;58.20
45813;BME280;31519;45.408;10.962;2023-04-30T07:45:34;100697.06;;;22.63;57.20
45813;BME280;31519;45.408;10.962;2023-04-30T07:48:03;100703.69;;;22.69;57.09
45813;BME280;31519;45.408;10.962;2023-04-30T07:50:31;100702.75;;;23.16;55.62
45813;BME280;31519;45.408;10.962;2023-04-30T07:53:03;100706.69;;;23.36;54.75
45813;BME280;31519;45.408;10.962;2023-04-30T07:55:36;100707.34;;;23.02;54.92
45813;BME280;31519;45.408;10.962;2023-04-30T07:58:04;100702.31;;;23.07;54.81
45813;BME280;31519;45.408;10.962;2023-04-30T08:00:32;100688.31;;;23.02;54.74
45813;BME280;31519;45.408;10.962;2023-04-30T08:03:00;100687.00;;;22.64;55.26
45813;BME280;31519;45.408;10.962;2023-04-30T08:05:28;100694.69;;;22.54;55.74
45813;BME280;31519;45.408;10.962;2023-04-30T08:07:57;100695.63;;;22.83;55.29
45813;BME280;31519;45.408;10.962;2023-04-30T08:10:25;100691.16;;;22.47;56.02
45813;BME280;31519;45.408;10.962;2023-04-30T08:12:54;100696.28;;;22.63;55.97
45813;BME280;31519;45.408;10.962;2023-04-30T08:15:21;100696.41;;;22.80;55.67
45813;BME280;31519;45.408;10.962;2023-04-30T08:17:50;100702.69;;;23.02;55.45
45813;BME280;31519;45.408;10.962;2023-04-30T08:20:19;100696.34;;;22.70;55.58
45813;BME280;31519;45.408;10.962;2023-04-30T08:22:50;100699.59;;;23.00;55.11
45813;BME280;31519;45.408;10.962;2023-04-30T08:25:18;100702.41;;;23.35;54.60
45813;BME280;31519;45.408;10.962;2023-04-30T08:27:47;100708.28;;;23.52;53.60
45813;BME280;31519;45.408;10.962;2023-04-30T08:30:15;100693.44;;;23.14;54.46
45813;BME280;31519;45.408;10.962;2023-04-30T08:32:44;100698.13;;;23.31;54.04
45813;BME280;31519;45.408;10.962;2023-04-30T08:35:12;100697.75;;;23.43;53.51
45813;BME280;31519;45.408;10.962;2023-04-30T08:37:40;100702.84;;;23.45;53.84
45813;BME280;31519;45.408;10.962;2023-04-30T08:40:08;100702.00;;;23.30;53.45
45813;BME280;31519;45.408;10.962;2023-04-30T08:42:49;100709.00;;;23.27;54.34
45813;BME280;31519;45.408;10.962;2023-04-30T08:45:20;100703.47;;;23.03;53.56
45813;BME280;31519;45.408;10.962;2023-04-30T08:47:49;100706.69;;;23.36;53.87
45813;BME280;31519;45.408;10.962;2023-04-30T08:50:17;100706.69;;;23.36;53.83
45813;BME280;31519;45.408;10.962;2023-04-30T08:52:45;100699.19;;;22.94;54.57
45813;BME280;31519;45.408;10.962;2023-04-30T08:55:13;100710.88;;;23.09;54.67
45813;BME280;31519;45.408;10.962;2023-04-30T08:57:41;100712.88;;;23.26;54.54
45813;BME280;31519;45.408;10.962;2023-04-30T09:00:10;100707.06;;;23.28;54.66
45813;BME280;31519;45.408;10.962;2023-04-30T09:02:40;100708.59;;;23.25;54.86
45813;BME280;31519;45.408;10.962;2023-04-30T09:05:11;100721.91;;;23.59;53.70
45813;BME280;31519;45.408;10.962;2023-04-30T09:07:43;100718.81;;;23.81;53.65
45813;BME280;31519;45.408;10.962;2023-04-30T09:10:21;100718.41;;;23.58;53.98
45813;BME280;31519;45.408;10.962;2023-04-30T09:13:04;100706.78;;;23.82;52.96
45813;BME280;31519;45.408;10.962;2023-04-30T09:15:33;100716.84;;;24.39;51.54
45813;BME280;31519;45.408;10.962;2023-04-30T09:18:09;100710.59;;;24.52;50.55
45813;BME280;31519;45.408;10.962;2023-04-30T09:20:53;100717.63;;;24.50;49.08
45813;BME280;31519;45.408;10.962;2023-04-30T09:23:22;100706.78;;;24.28;48.93
45813;BME280;31519;45.408;10.962;2023-04-30T09:25:50;100705.56;;;24.15;49.42
45813;BME280;31519;45.408;10.962;2023-04-30T09:28:19;100707.91;;;24.42;48.57
45813;BME280;31519;45.408;10.962;2023-04-30T09:30:56;100712.22;;;24.14;49.13
45813;BME280;31519;45.408;10.962;2023-04-30T09:33:24;100715.28;;;24.52;48.38
45813;BME280;31519;45.408;10.962;2023-04-30T09:35:52;100707.16;;;24.31;48.97
45813;BME280;31519;45.408;10.962;2023-04-30T09:38:31;100705.19;;;24.42;47.74
45813;BME280;31519;45.408;10.962;2023-04-30T09:41:00;100707.13;;;24.41;48.21
45813;BME280;31519;45.408;10.962;2023-04-30T09:43:29;100703.25;;;24.35;47.61
45813;BME280;31519;45.408;10.962;2023-04-30T09:45:58;100693.94;;;24.22;46.73
45813;BME280;31519;45.408;10.962;2023-04-30T09:48:27;100700.47;;;24.53;46.90
45813;BME280;31519;45.408;10.962;2023-04-30T09:50:55;100691.16;;;24.54;46.89
45813;BME280;31519;45.408;10.962;2023-04-30T09:53:25;100699.28;;;24.68;46.66
45813;BME280;31519;45.408;10.962;2023-04-30T09:55:55;100697.69;;;24.78;46.61
45813;BME280;31519;45.408;10.962;2023-04-30T09:58:27;100703.53;;;24.72;46.90
45813;BME280;31519;45.408;10.962;2023-04-30T10:00:57;100700.78;;;24.83;46.66
45813;BME280;31519;45.408;10.962;2023-04-30T10:03:27;100695.34;;;24.87;46.09
45813;BME280;31519;45.408;10.962;2023-04-30T10:05:56;100703.84;;;25.03;46.03
45813;BME280;31519;45.408;10.962;2023-04-30T10:08:32;100700.66;;;25.11;46.05
45813;BME280;31519;45.408;10.962;2023-04-30T10:11:01;100701.00;;;25.24;45.61
45813;BME280;31519;45.408;10.962;2023-04-30T10:13:46;100698.44;;;24.89;45.89
45813;BME280;31519;45.408;10.962;2023-04-30T10:18:53;100690.72;;;25.49;44.56
45813;BME280;31519;45.408;10.962;2023-04-30T10:21:23;100683.31;;;25.57;44.59
45813;BME280;31519;45.408;10.962;2023-04-30T10:23:53;100678.47;;;25.75;43.21
45813;BME280;31519;45.408;10.962;2023-04-30T10:26:22;100682.72;;;25.80;42.71
45813;BME280;31519;45.408;10.962;2023-04-30T10:28:52;100681.91;;;25.83;41.98
45813;BME280;31519;45.408;10.962;2023-04-30T10:31:22;100684.22;;;25.26;42.65
45813;BME280;31519;45.408;10.962;2023-04-30T10:36:50;100673.25;;;25.43;41.86
45813;BME280;31519;45.408;10.962;2023-04-30T10:39:22;100680.13;;;25.62;41.81
45813;BME280;31519;45.408;10.962;2023-04-30T10:42:02;100667.78;;;25.40;41.88
45813;BME280;31519;45.408;10.962;2023-04-30T10:44:32;100672.03;;;25.48;41.35
45813;BME280;31519;45.408;10.962;2023-04-30T10:47:05;100657.44;;;25.13;42.31
45813;BME280;31519;45.408;10.962;2023-04-30T10:49:33;100664.69;;;25.38;41.21
45813;BME280;31519;45.408;10.962;2023-04-30T10:52:03;100660.59;;;25.08;40.76
45813;BME280;31519;45.408;10.962;2023-04-30T10:54:35;100656.47;;;24.68;41.17
45813;BME280;31519;45.408;10.962;2023-04-30T10:57:15;100656.75;;;24.99;41.56
45813;BME280;31519;45.408;10.962;2023-04-30T10:59:53;100651.19;;;25.16;41.45
45813;BME280;31519;45.408;10.962;2023-04-30T11:02:43;100644.09;;;25.81;40.58
45813;BME280;31519;45.408;10.962;2023-04-30T11:05:13;100642.63;;;25.73;40.93
45813;BME280;31519;45.408;10.962;2023-04-30T11:07:49;100639.81;;;25.80;40.15
45813;BME280;31519;45.408;10.962;2023-04-30T11:10:22;100641.06;;;25.72;39.41
45813;BME280;31519;45.408;10.962;2023-04-30T11:12:53;100639.00;;;25.87;38.67
45813;BME280;31519;45.408;10.962;2023-04-30T11:15:30;100622.72;;;25.76;39.37
45813;BME280;31519;45.408;10.962;2023-04-30T11:17:58;100645.75;;;26.13;38.11
45813;BME280;31519;45.408;10.962;2023-04-30T11:20:27;100638.66;;;26.22;37.57
45813;BME280;31519;45.408;10.962;2023-04-30T11:23:14;100630.75;;;27.22;36.28
45813;BME280;31519;45.408;10.962;2023-04-30T11:25:59;100637.00;;;27.73;35.31
45813;BME280;31519;45.408;10.962;2023-04-30T11:28:28;100636.03;;;28.49;34.16
45813;BME280;31519;45.408;10.962;2023-04-30T11:30:59;100635.78;;;28.60;34.07
45813;BME280;31519;45.408;10.962;2023-04-30T11:33:29;100629.75;;;27.86;34.73
45813;BME280;31519;45.408;10.962;2023-04-30T11:36:00;100629.31;;;27.68;35.50
45813;BME280;31519;45.408;10.962;2023-04-30T11:38:32;100629.53;;;27.77;35.55
45813;BME280;31519;45.408;10.962;2023-04-30T11:41:02;100625.13;;;27.60;35.54
45813;BME280;31519;45.408;10.962;2023-04-30T11:43:32;100628.53;;;27.67;34.27
45813;BME280;31519;45.408;10.962;2023-04-30T11:46:12;100622.19;;;27.47;34.44
45813;BME280;31519;45.408;10.962;2023-04-30T11:48:43;100633.09;;;27.51;34.11
45813;BME280;31519;45.408;10.962;2023-04-30T11:51:16;100634.38;;;27.43;34.10
45813;BME280;31519;45.408;10.962;2023-04-30T11:53:49;100627.16;;;27.29;34.63
45813;BME280;31519;45.408;10.962;2023-04-30T11:56:23;100630.59;;;27.83;33.91
45813;BME280;31519;45.408;10.962;2023-04-30T11:58:52;100629.56;;;27.73;34.54
45813;BME280;31519;45.408;10.962;2023-04-30T12:01:26;100621.09;;;27.41;34.32
45813;BME280;31519;45.408;10.962;2023-04-30T12:03:55;100619.06;;;28.15;33.65
45813;BME280;31519;45.408;10.962;2023-04-30T12:06:26;100624.81;;;27.27;34.24
45813;BME280;31519;45.408;10.962;2023-04-30T12:08:56;100635.59;;;27.38;34.52
45813;BME280;31519;45.408;10.962;2023-04-30T12:11:30;100628.97;;;27.39;34.80
45813;BME280;31519;45.408;10.962;2023-04-30T12:14:08;100618.34;;;27.68;34.25
45813;BME280;31519;45.408;10.962;2023-04-30T12:16:50;100628.25;;;27.08;35.12
45813;BME280;31519;45.408;10.962;2023-04-30T12:19:20;100618.31;;;27.91;34.07
45813;BME280;31519;45.408;10.962;2023-04-30T12:21:52;100615.78;;;28.63;33.30
45813;BME280;31519;45.408;10.962;2023-04-30T12:24:26;100616.34;;;28.54;32.58
45813;BME280;31519;45.408;10.962;2023-04-30T12:26:54;100619.84;;;28.75;32.11
45813;BME280;31519;45.408;10.962;2023-04-30T12:29:22;100609.47;;;28.27;33.05
45813;BME280;31519;45.408;10.962;2023-04-30T12:31:52;100606.50;;;27.51;33.65
45813;BME280;31519;45.408;10.962;2023-04-30T12:34:25;100611.56;;;28.19;32.82
45813;BME280;31519;45.408;10.962;2023-04-30T12:36:56;100618.53;;;28.43;32.02
45813;BME280;31519;45.408;10.962;2023-04-30T12:39:25;100607.97;;;28.81;31.84
45813;BME280;31519;45.408;10.962;2023-04-30T12:42:00;100611.47;;;29.34;31.10
45813;BME280;31519;45.408;10.962;2023-04-30T12:44:28;100616.13;;;29.82;30.06
45813;BME280;31519;45.408;10.962;2023-04-30T12:46:57;100612.03;;;29.74;30.02
45813;BME280;31519;45.408;10.962;2023-04-30T12:49:29;100603.88;;;30.15;29.40
45813;BME280;31519;45.408;10.962;2023-04-30T12:52:05;100609.97;;;29.62;29.95
45813;BME280;31519;45.408;10.962;2023-04-30T12:54:37;100599.63;;;29.37;30.03
45813;BME280;31519;45.408;10.962;2023-04-30T12:57:10;100596.25;;;29.29;30.42
45813;BME280;31519;45.408;10.962;2023-04-30T12:59:54;100602.56;;;29.46;30.17
45813;BME280;31519;45.408;10.962;2023-04-30T13:02:25;100596.09;;;29.04;30.74
45813;BME280;31519;45.408;10.962;2023-04-30T13:04:54;100589.97;;;28.60;31.12
45813;BME280;31519;45.408;10.962;2023-04-30T13:07:22;100599.00;;;28.22;31.24
45813;BME280;31519;45.408;10.962;2023-04-30T13:09:51;100597.41;;;28.01;31.22
45813;BME280;31519;45.408;10.962;2023-04-30T13:12:19;100591.47;;;27.63;31.62